createdAt,value
2022-11-25T00:01:12.543Z,19.88
2022-11-25T00:03:39.942Z,18.70
2022-11-25T00:06:18.034Z,19.58
2022-11-25T00:08:46.506Z,18.92
2022-11-25T00:11:14.588Z,19.00
2022-11-25T00:13:41.936Z,18.98
2022-11-25T00:16:13.410Z,19.98
2022-11-25T00:18:40.045Z,19.95
2022-11-25T00:21:08.738Z,20.65
2022-11-25T00:23:36.599Z,20.50
2022-11-25T00:26:14.816Z,19.95
2022-11-25T00:28:46.220Z,19.50
2022-11-25T00:31:39.779Z,20.20
2022-11-25T00:34:07.219Z,19.45
2022-11-25T00:36:35.927Z,20.15
2022-11-25T00:39:05.417Z,21.38
2022-11-25T00:41:50.463Z,21.48
2022-11-25T00:44:38.115Z,20.08
2022-11-25T00:47:14.189Z,19.48
2022-11-25T00:49:42.862Z,21.95
2022-11-25T00:52:12.405Z,23.13
2022-11-25T00:54:38.861Z,23.55
2022-11-25T00:57:05.407Z,24.70
2022-11-25T00:59:31.766Z,22.42
2022-11-25T01:01:58.273Z,22.88
2022-11-25T01:04:24.872Z,22.50
2022-11-25T01:06:51.255Z,20.25
2022-11-25T01:09:17.634Z,22.50
2022-11-25T01:11:44.346Z,22.15
2022-11-25T01:14:11.331Z,21.40
2022-11-25T01:16:37.958Z,22.38
2022-11-25T01:19:05.585Z,20.73
2022-11-25T01:21:34.253Z,20.38
2022-11-25T01:24:02.932Z,19.77
2022-11-25T01:26:30.293Z,20.83
2022-11-25T01:28:59.507Z,18.30
2022-11-25T01:31:27.980Z,23.77
2022-11-25T01:34:04.395Z,19.98
2022-11-25T01:36:31.094Z,19.02
2022-11-25T01:38:59.505Z,20.00
2022-11-25T01:41:28.611Z,18.95
2022-11-25T01:44:05.522Z,19.13
2022-11-25T01:47:30.793Z,18.92
2022-11-25T01:50:03.695Z,17.50
2022-11-25T01:52:36.742Z,18.35
2022-11-25T01:55:11.061Z,19.10
2022-11-25T02:00:13.226Z,14.30
2022-11-25T02:02:39.870Z,16.25
2022-11-25T02:05:15.650Z,19.15
2022-11-25T02:07:45.161Z,17.70
2022-11-25T02:10:15.580Z,18.90
2022-11-25T02:12:44.965Z,19.02
2022-11-25T02:15:13.716Z,18.48
2022-11-25T02:17:40.643Z,18.80
2022-11-25T02:20:10.871Z,18.25
2022-11-25T02:22:56.928Z,21.45
2022-11-25T02:25:31.079Z,17.70
2022-11-25T02:28:05.948Z,19.75
2022-11-25T02:30:33.770Z,17.60
2022-11-25T02:33:00.938Z,19.08
2022-11-25T02:35:29.288Z,18.98
2022-11-25T02:38:00.329Z,20.27
2022-11-25T02:40:28.608Z,18.98
2022-11-25T02:42:58.722Z,19.95
2022-11-25T02:45:35.476Z,20.08
2022-11-25T02:48:01.845Z,17.77
2022-11-25T02:50:28.196Z,20.48
2022-11-25T02:52:54.519Z,19.10
2022-11-25T02:55:20.982Z,19.75
2022-11-25T02:57:47.288Z,21.42
2022-11-25T03:00:14.206Z,19.63
2022-11-25T03:02:40.668Z,22.17
2022-11-25T03:05:07.262Z,20.48
2022-11-25T03:07:33.598Z,19.98
2022-11-25T03:10:00.036Z,21.63
2022-11-25T03:12:26.435Z,22.65
2022-11-25T03:14:52.814Z,22.13
2022-11-25T03:17:19.332Z,23.20
2022-11-25T03:19:45.759Z,22.13
2022-11-25T03:22:12.188Z,21.88
2022-11-25T03:24:38.689Z,22.80
2022-11-25T03:27:05.245Z,21.52
2022-11-25T03:29:31.783Z,21.45
2022-11-25T03:31:58.174Z,22.92
2022-11-25T03:34:24.536Z,22.30
2022-11-25T03:36:50.948Z,25.13
2022-11-25T03:39:17.319Z,29.40
2022-11-25T03:41:43.686Z,31.85
2022-11-25T03:44:10.008Z,32.72
2022-11-25T03:46:36.345Z,34.75
2022-11-25T03:49:02.966Z,39.80
2022-11-25T03:51:29.472Z,39.20
2022-11-25T03:53:55.851Z,41.40
2022-11-25T03:56:22.189Z,45.53
2022-11-25T03:58:48.638Z,51.88
2022-11-25T04:01:15.033Z,51.38
2022-11-25T04:03:41.511Z,52.72
2022-11-25T04:06:07.895Z,58.65
2022-11-25T04:08:34.209Z,63.72
2022-11-25T04:11:00.695Z,66.82
2022-11-25T04:13:27.054Z,67.75
2022-11-25T04:15:53.471Z,64.60
2022-11-25T04:18:20.385Z,67.68
2022-11-25T04:20:47.017Z,62.88
2022-11-25T04:23:14.461Z,62.53
2022-11-25T04:25:40.934Z,55.58
2022-11-25T04:28:07.249Z,61.33
2022-11-25T04:30:34.123Z,57.25
2022-11-25T04:33:01.837Z,56.13
2022-11-25T04:35:28.202Z,56.78
2022-11-25T04:37:54.561Z,59.58
2022-11-25T04:40:20.921Z,59.83
2022-11-25T04:42:47.479Z,58.05
2022-11-25T04:45:24.044Z,57.55
2022-11-25T04:47:51.466Z,59.92
2022-11-25T04:50:21.056Z,57.95
2022-11-25T04:52:47.380Z,54.78
2022-11-25T04:55:13.798Z,54.75
2022-11-25T04:57:40.299Z,53.72
2022-11-25T05:00:07.925Z,52.35
2022-11-25T05:02:34.353Z,52.78
2022-11-25T05:05:01.374Z,51.83
2022-11-25T05:07:28.923Z,43.90
2022-11-25T05:09:56.216Z,45.42
2022-11-25T05:12:25.932Z,42.05
2022-11-25T05:14:52.747Z,40.53
2022-11-25T05:17:22.381Z,44.55
2022-11-25T05:19:49.698Z,40.58
2022-11-25T05:22:18.238Z,43.22
2022-11-25T05:24:44.705Z,43.00
2022-11-25T05:27:11.685Z,45.88
2022-11-25T05:29:38.181Z,42.85
2022-11-25T05:32:05.209Z,38.00
2022-11-25T05:34:31.806Z,42.15
2022-11-25T05:36:58.607Z,43.83
2022-11-25T05:39:25.431Z,41.78
2022-11-25T05:41:51.908Z,44.75
2022-11-25T05:44:22.723Z,41.05
2022-11-25T05:46:50.235Z,41.97
2022-11-25T05:49:17.604Z,42.45
2022-11-25T05:51:44.244Z,44.60
2022-11-25T05:54:10.881Z,45.40
2022-11-25T05:56:37.333Z,46.38
2022-11-25T05:59:04.796Z,43.78
2022-11-25T06:01:31.790Z,45.25
2022-11-25T06:04:04.873Z,45.92
2022-11-25T06:06:32.118Z,46.28
2022-11-25T06:08:58.786Z,48.40
2022-11-25T06:11:28.082Z,46.30
2022-11-25T06:13:57.396Z,46.65
2022-11-25T06:16:24.760Z,47.78
2022-11-25T06:18:51.455Z,46.97
2022-11-25T06:21:18.014Z,45.92
2022-11-25T06:23:47.090Z,43.58
2022-11-25T06:26:19.513Z,42.95
2022-11-25T06:28:46.433Z,43.42
2022-11-25T06:31:18.597Z,44.20
2022-11-25T06:33:49.832Z,43.50
2022-11-25T06:36:17.508Z,43.90
2022-11-25T06:38:45.195Z,44.28
2022-11-25T06:41:11.588Z,46.25
2022-11-25T06:43:38.077Z,44.90
2022-11-25T06:46:12.805Z,42.55
2022-11-25T06:48:40.308Z,43.92
2022-11-25T06:51:16.369Z,39.65
2022-11-25T06:53:42.728Z,39.13
2022-11-25T06:56:15.942Z,43.35
2022-11-25T06:58:43.976Z,42.35
2022-11-25T07:01:19.081Z,44.50
2022-11-25T07:03:47.105Z,43.05
2022-11-25T07:06:15.578Z,46.38
2022-11-25T07:08:42.533Z,44.95
2022-11-25T07:11:17.102Z,43.65
2022-11-25T07:13:43.838Z,44.58
2022-11-25T07:16:11.826Z,42.90
2022-11-25T07:18:39.528Z,42.38
2022-11-25T07:21:11.412Z,48.40
2022-11-25T07:23:38.522Z,50.67
2022-11-25T07:26:21.529Z,44.47
2022-11-25T07:28:49.387Z,44.13
2022-11-25T07:31:28.688Z,44.22
2022-11-25T07:34:00.749Z,43.13
2022-11-25T07:36:28.275Z,43.80
2022-11-25T07:38:54.879Z,45.97
2022-11-25T07:41:23.952Z,44.83
2022-11-25T07:43:52.708Z,44.22
2022-11-25T07:46:26.302Z,46.20
2022-11-25T07:51:27.152Z,47.50
2022-11-25T07:53:55.224Z,46.67
2022-11-25T07:56:21.759Z,44.08
2022-11-25T07:58:48.274Z,47.97
2022-11-25T08:01:17.033Z,46.92
2022-11-25T08:03:44.527Z,46.67
2022-11-25T08:06:16.629Z,46.80
2022-11-25T08:08:44.055Z,44.50
2022-11-25T08:11:14.340Z,44.78
2022-11-25T08:13:41.110Z,43.38
2022-11-25T08:16:08.634Z,44.20
2022-11-25T08:18:35.106Z,42.67
2022-11-25T08:21:06.914Z,45.35
2022-11-25T08:23:34.397Z,42.42
2022-11-25T08:26:13.239Z,41.10
2022-11-25T08:28:41.363Z,43.45
2022-11-25T08:31:10.917Z,43.60
2022-11-25T08:33:37.718Z,40.30
2022-11-25T08:36:04.944Z,40.00
2022-11-25T08:38:31.655Z,39.83
2022-11-25T08:40:58.377Z,45.10
2022-11-25T08:43:29.419Z,40.85
2022-11-25T08:45:56.378Z,39.95
2022-11-25T08:48:22.788Z,45.30
2022-11-25T08:50:52.643Z,41.97
2022-11-25T08:53:21.115Z,41.28
2022-11-25T08:55:48.265Z,44.08
2022-11-25T08:58:14.626Z,40.33
2022-11-25T09:00:43.076Z,43.05
2022-11-25T09:03:10.500Z,43.25
2022-11-25T09:05:45.360Z,43.50
2022-11-25T09:08:12.438Z,42.72
2022-11-25T09:10:39.689Z,42.05
2022-11-25T09:13:06.463Z,40.92
2022-11-25T09:15:34.699Z,37.55
2022-11-25T09:18:03.752Z,42.33
2022-11-25T09:20:31.137Z,36.83
2022-11-25T09:23:00.120Z,38.35
2022-11-25T09:25:27.675Z,38.20
2022-11-25T09:27:55.546Z,36.50
2022-11-25T09:30:22.897Z,36.28
2022-11-25T09:32:51.691Z,30.38
2022-11-25T09:35:19.061Z,34.60
2022-11-25T09:37:45.663Z,36.88
2022-11-25T09:40:50.912Z,36.67
2022-11-25T09:46:42.509Z,27.58
2022-11-25T09:49:40.562Z,29.80
2022-11-25T09:52:28.259Z,40.05
2022-11-25T09:55:11.421Z,42.88
2022-11-25T09:58:01.911Z,47.60
2022-11-25T10:00:38.562Z,42.38
2022-11-25T10:03:23.532Z,42.90
2022-11-25T10:06:08.188Z,41.33
2022-11-25T10:11:48.047Z,24.73
2022-11-25T10:14:41.907Z,27.73
2022-11-25T10:17:28.840Z,24.70
2022-11-25T10:20:07.182Z,26.52
2022-11-25T10:22:36.375Z,25.40
2022-11-25T10:25:15.612Z,15.40
2022-11-25T10:27:44.645Z,20.35
2022-11-25T10:30:23.794Z,21.15
2022-11-25T10:33:00.762Z,19.90
2022-11-25T10:35:34.820Z,23.80
2022-11-25T10:38:05.440Z,26.80
2022-11-25T10:40:31.956Z,29.15
2022-11-25T10:43:01.000Z,32.97
2022-11-25T10:45:40.560Z,28.77
2022-11-25T10:48:18.340Z,24.17
2022-11-25T10:51:20.352Z,21.67
2022-11-25T10:54:14.699Z,21.40
2022-11-25T10:56:49.441Z,20.95
2022-11-25T10:59:31.269Z,19.23
2022-11-25T11:02:26.944Z,18.42
2022-11-25T11:04:57.728Z,17.55
2022-11-25T11:07:29.570Z,21.10
2022-11-25T11:10:15.513Z,22.05
2022-11-25T11:13:19.869Z,18.88
2022-11-25T11:15:54.889Z,15.05
2022-11-25T11:18:29.303Z,15.60
2022-11-25T11:23:25.081Z,14.65
2022-11-25T11:26:28.696Z,16.77
2022-11-25T11:29:01.214Z,14.90
2022-11-25T11:31:33.271Z,13.90
2022-11-25T11:34:05.651Z,14.48
2022-11-25T11:37:12.319Z,17.88
2022-11-25T11:40:00.144Z,20.20
2022-11-25T11:42:41.438Z,18.77
2022-11-25T11:45:42.338Z,20.23
2022-11-25T11:48:39.298Z,22.60
2022-11-25T11:51:27.503Z,23.00
2022-11-25T11:54:18.050Z,23.90
2022-11-25T11:56:52.058Z,20.25
2022-11-25T11:59:46.914Z,22.75
2022-11-25T12:02:52.521Z,20.58
2022-11-25T12:05:22.045Z,19.50
2022-11-25T12:08:28.341Z,19.27
2022-11-25T12:10:58.137Z,23.05
2022-11-25T12:13:56.513Z,22.73
2022-11-25T12:16:32.333Z,20.70
2022-11-25T12:19:39.560Z,22.92
2022-11-25T12:22:32.270Z,21.02
2022-11-25T12:25:08.724Z,18.48
2022-11-25T12:28:10.361Z,19.58
2022-11-25T12:31:06.271Z,22.30
2022-11-25T12:33:44.125Z,19.75
2022-11-25T12:36:17.743Z,20.20
2022-11-25T12:38:53.423Z,18.95
2022-11-25T12:41:19.664Z,18.30
2022-11-25T12:43:48.959Z,15.60
2022-11-25T12:46:28.507Z,15.52
2022-11-25T12:48:58.194Z,15.48
2022-11-25T12:51:51.079Z,15.93
2022-11-25T12:54:54.675Z,11.75
2022-11-25T12:57:30.305Z,11.55
2022-11-25T13:00:46.556Z,11.05
2022-11-25T13:03:45.861Z,12.25
2022-11-25T13:06:22.664Z,14.35
2022-11-25T13:08:55.742Z,12.30
2022-11-25T13:11:31.664Z,12.80
2022-11-25T13:14:14.337Z,12.25
2022-11-25T13:16:45.412Z,13.82
2022-11-25T13:19:16.626Z,18.50
2022-11-25T13:22:18.218Z,14.95
2022-11-25T13:24:47.654Z,12.27
2022-11-25T13:27:35.907Z,13.38
2022-11-25T13:30:03.198Z,12.55
2022-11-25T13:32:35.221Z,12.45
2022-11-25T13:35:26.287Z,13.68
2022-11-25T13:37:53.410Z,12.38
2022-11-25T13:40:22.872Z,13.13
2022-11-25T13:42:53.314Z,12.07
2022-11-25T13:45:43.320Z,13.80
2022-11-25T13:48:21.237Z,12.52
2022-11-25T13:51:10.610Z,12.60
2022-11-25T13:53:39.827Z,13.27
2022-11-25T13:56:25.316Z,13.68
2022-11-25T13:59:12.222Z,13.00
2022-11-25T14:01:52.421Z,13.23
2022-11-25T14:04:43.026Z,12.82
2022-11-25T14:07:26.711Z,11.68
2022-11-25T14:10:54.829Z,12.70
2022-11-25T14:13:50.991Z,11.48
2022-11-25T14:16:35.625Z,11.88
2022-11-25T14:22:30.900Z,10.73
2022-11-25T14:25:25.590Z,11.23
2022-11-25T14:28:03.923Z,11.57
2022-11-25T14:30:32.608Z,13.45
2022-11-25T14:33:03.652Z,12.85
2022-11-25T14:35:35.493Z,13.05
2022-11-25T14:38:13.515Z,12.45
2022-11-25T14:41:00.327Z,11.35
2022-11-25T14:43:28.856Z,11.40
2022-11-25T14:46:15.534Z,12.38
2022-11-25T14:48:43.722Z,13.23
2022-11-25T14:51:18.438Z,11.93
2022-11-25T14:53:50.449Z,12.68
2022-11-25T14:56:55.426Z,13.02
2022-11-25T14:59:22.080Z,11.50
2022-11-25T15:01:54.961Z,12.45
2022-11-25T15:04:24.325Z,12.93
2022-11-25T15:06:53.973Z,13.23
2022-11-25T15:09:29.324Z,14.18
2022-11-25T15:12:00.669Z,15.23
2022-11-25T15:14:27.028Z,15.18
2022-11-25T15:16:54.220Z,16.35
2022-11-25T15:19:25.297Z,19.55
2022-11-25T15:24:53.291Z,16.80
2022-11-25T15:27:28.671Z,18.90
2022-11-25T15:29:56.993Z,20.30
2022-11-25T15:32:29.799Z,20.55
2022-11-25T15:34:59.021Z,20.65
2022-11-25T15:37:25.985Z,22.17
2022-11-25T15:40:31.409Z,22.52
2022-11-25T15:43:04.339Z,20.50
2022-11-25T15:45:53.990Z,20.60
2022-11-25T15:48:38.403Z,21.63
2022-11-25T15:51:23.142Z,21.40
2022-11-25T15:53:56.386Z,22.85
2022-11-25T15:56:26.910Z,25.63
2022-11-25T15:58:58.636Z,23.30
2022-11-25T16:01:31.750Z,24.33
2022-11-25T16:04:19.833Z,26.55
2022-11-25T16:07:06.435Z,24.92
2022-11-25T16:10:02.154Z,25.08
2022-11-25T16:12:28.514Z,25.85
2022-11-25T16:14:54.856Z,26.98
2022-11-25T16:20:28.508Z,24.23
2022-11-25T16:22:56.127Z,24.30
2022-11-25T16:25:22.845Z,23.75
2022-11-25T16:27:49.386Z,24.58
2022-11-25T16:30:20.163Z,25.05
2022-11-25T16:32:46.576Z,25.08
2022-11-25T16:35:15.595Z,26.90
2022-11-25T16:37:47.199Z,28.00
2022-11-25T16:40:17.078Z,29.30
2022-11-25T16:42:49.142Z,29.60
2022-11-25T16:45:27.369Z,33.55
2022-11-25T16:47:54.436Z,31.05
2022-11-25T16:50:22.033Z,31.73
2022-11-25T16:52:49.697Z,31.88
2022-11-25T16:55:18.364Z,33.63
2022-11-25T16:57:46.933Z,34.85
2022-11-25T17:00:17.660Z,34.05
2022-11-25T17:02:44.844Z,35.33
2022-11-25T17:05:25.261Z,35.53
2022-11-25T17:07:53.581Z,36.28
2022-11-25T17:10:20.648Z,37.67
2022-11-25T17:12:47.648Z,36.30
2022-11-25T17:15:24.302Z,35.80
2022-11-25T17:17:51.094Z,35.42
2022-11-25T17:20:21.763Z,31.83
2022-11-25T17:22:49.076Z,30.05
2022-11-25T17:25:15.602Z,32.35
2022-11-25T17:27:42.810Z,31.15
2022-11-25T17:30:22.348Z,30.75
2022-11-25T17:33:02.757Z,29.42
2022-11-25T17:35:29.394Z,28.08
2022-11-25T17:37:57.954Z,28.92
2022-11-25T17:40:24.527Z,30.50
2022-11-25T17:42:52.564Z,30.75
2022-11-25T17:45:21.358Z,27.80
2022-11-25T17:47:48.170Z,30.08
2022-11-25T17:50:23.589Z,29.52
2022-11-25T17:52:51.544Z,29.65
2022-11-25T17:55:19.833Z,29.92
2022-11-25T17:57:48.303Z,31.25
2022-11-25T18:00:17.844Z,31.42
2022-11-25T18:02:44.279Z,30.05
2022-11-25T18:05:14.731Z,28.33
2022-11-25T18:07:43.770Z,27.17
2022-11-25T18:10:14.421Z,29.65
2022-11-25T18:12:42.709Z,30.20
2022-11-25T18:15:19.435Z,27.55
2022-11-25T18:17:47.003Z,28.10
2022-11-25T18:20:21.080Z,30.58
2022-11-25T18:22:47.814Z,28.35
2022-11-25T18:25:38.984Z,28.73
2022-11-25T18:28:05.602Z,25.83
2022-11-25T18:30:34.038Z,29.50
2022-11-25T18:33:01.552Z,27.73
2022-11-25T18:35:35.665Z,27.58
2022-11-25T18:38:02.722Z,26.27
2022-11-25T18:40:29.740Z,27.08
2022-11-25T18:43:00.480Z,27.10
2022-11-25T18:45:38.494Z,27.45
2022-11-25T18:48:17.315Z,29.05
2022-11-25T18:50:45.037Z,25.88
2022-11-25T18:53:11.796Z,28.20
2022-11-25T18:55:38.317Z,26.73
2022-11-25T18:58:15.283Z,28.63
2022-11-25T19:00:41.955Z,25.42
2022-11-25T19:03:17.406Z,27.33
2022-11-25T19:05:43.937Z,28.05
2022-11-25T19:08:10.413Z,29.38
2022-11-25T19:10:38.832Z,25.92
2022-11-25T19:13:08.739Z,30.83
2022-11-25T19:15:37.381Z,30.40
2022-11-25T19:18:06.348Z,30.73
2022-11-25T19:20:33.122Z,30.63
2022-11-25T19:23:11.639Z,31.35
2022-11-25T19:25:37.946Z,32.72
2022-11-25T19:28:04.493Z,39.38
2022-11-25T19:30:32.254Z,44.38
2022-11-25T19:33:01.164Z,45.75
2022-11-25T19:35:33.249Z,48.47
2022-11-25T19:37:59.613Z,48.28
2022-11-25T19:40:26.290Z,53.65
2022-11-25T19:42:52.673Z,46.72
2022-11-25T19:45:20.982Z,46.28
2022-11-25T19:47:50.449Z,43.55
2022-11-25T19:50:23.505Z,48.72
2022-11-25T19:52:50.758Z,45.05
2022-11-25T19:55:18.963Z,49.97
2022-11-25T19:57:45.760Z,52.17
2022-11-25T20:00:14.422Z,47.75
2022-11-25T20:02:42.332Z,50.42
2022-11-25T20:05:09.543Z,49.22
2022-11-25T20:07:36.443Z,49.22
2022-11-25T20:10:19.503Z,51.75
2022-11-25T20:12:45.927Z,44.33
2022-11-25T20:15:13.020Z,49.25
2022-11-25T20:17:43.075Z,51.35
2022-11-25T20:20:22.462Z,51.47
2022-11-25T20:23:08.952Z,51.10
2022-11-25T20:25:43.410Z,53.25
2022-11-25T20:28:22.856Z,56.88
2022-11-25T20:30:50.639Z,62.63
2022-11-25T20:33:24.079Z,55.15
2022-11-25T20:35:58.451Z,55.35
2022-11-25T20:38:27.581Z,50.92
2022-11-25T20:40:57.784Z,56.33
2022-11-25T20:43:34.424Z,59.08
2022-11-25T20:46:02.473Z,60.72
2022-11-25T20:48:29.925Z,59.35
2022-11-25T20:50:59.940Z,64.28
2022-11-25T20:53:27.987Z,68.45
2022-11-25T20:55:54.329Z,67.45
2022-11-25T20:58:25.242Z,65.57
2022-11-25T21:01:01.126Z,64.28
2022-11-25T21:03:27.521Z,60.58
2022-11-25T21:05:55.334Z,65.25
2022-11-25T21:08:24.245Z,67.55
2022-11-25T21:10:53.816Z,68.97
2022-11-25T21:13:26.417Z,61.70
2022-11-25T21:15:53.937Z,62.08
2022-11-25T21:18:21.440Z,61.65
2022-11-25T21:20:53.615Z,58.10
2022-11-25T21:23:22.691Z,55.38
2022-11-25T21:25:50.304Z,48.85
2022-11-25T21:28:20.329Z,48.05
2022-11-25T21:30:49.497Z,48.33
2022-11-25T21:33:16.407Z,43.50
2022-11-25T21:35:46.711Z,47.33
2022-11-25T21:38:27.241Z,44.28
2022-11-25T21:40:56.095Z,40.40
2022-11-25T21:43:40.532Z,40.63
2022-11-25T21:46:12.506Z,34.35
2022-11-25T21:48:39.951Z,32.10
2022-11-25T21:51:06.362Z,38.13
2022-11-25T21:53:37.157Z,34.45
2022-11-25T21:56:14.161Z,33.35
2022-11-25T21:58:40.731Z,34.13
2022-11-25T22:01:10.669Z,28.45
2022-11-25T22:03:37.056Z,25.35
2022-11-25T22:06:03.705Z,26.17
2022-11-25T22:08:30.385Z,25.70
2022-11-25T22:10:56.844Z,24.75
2022-11-25T22:13:30.101Z,28.25
2022-11-25T22:15:58.232Z,28.20
2022-11-25T22:18:34.401Z,28.60
2022-11-25T22:21:01.835Z,30.92
2022-11-25T22:23:30.768Z,38.20
2022-11-25T22:25:57.196Z,38.35
2022-11-25T22:28:30.711Z,42.35
2022-11-25T22:31:04.823Z,48.10
2022-11-25T22:33:33.647Z,44.55
2022-11-25T22:36:00.658Z,49.13
2022-11-25T22:38:29.174Z,52.65
2022-11-25T22:40:59.283Z,58.20
2022-11-25T22:43:29.612Z,56.25
2022-11-25T22:45:56.788Z,59.75
2022-11-25T22:48:30.875Z,65.55
2022-11-25T22:51:00.083Z,61.38
2022-11-25T22:53:26.435Z,55.25
2022-11-25T22:55:56.735Z,60.60
2022-11-25T22:58:24.056Z,60.03
2022-11-25T23:00:51.482Z,61.00
2022-11-25T23:03:26.677Z,59.53
2022-11-25T23:05:54.253Z,55.55
2022-11-25T23:08:28.979Z,61.08
2022-11-25T23:10:56.147Z,58.33
2022-11-25T23:13:26.427Z,57.85
2022-11-25T23:15:59.963Z,62.03
2022-11-25T23:18:34.106Z,59.38
2022-11-25T23:21:05.560Z,53.95
2022-11-25T23:23:35.244Z,58.38
2022-11-25T23:26:02.014Z,58.33
2022-11-25T23:28:28.414Z,55.25
2022-11-25T23:31:00.702Z,55.65
2022-11-25T23:33:32.835Z,55.38
2022-11-25T23:36:02.536Z,56.45
2022-11-25T23:38:31.306Z,60.03
2022-11-25T23:40:57.840Z,53.45
2022-11-25T23:43:26.719Z,57.83
2022-11-25T23:45:56.014Z,57.05
2022-11-25T23:48:27.718Z,61.53
2022-11-25T23:50:58.116Z,52.65
2022-11-25T23:53:29.206Z,54.97
2022-11-25T23:55:55.839Z,54.97
2022-11-25T23:58:25.739Z,61.88
